Time;durP1;ratioP1;P1;durP2;ratioP2;P2;SDS_P1;SDS_P2;PMS_P1;PMS_P2;Temp;Humidity;BMP_temperature;BMP_pressure;BME280_temperature;BME280_humidity;BME280_pressure;Samples;Min_cycle;Max_cycle;Signal;HPM_P1;HPM_P2
2024/04/19 00:00:04;;;;;;;10.10;1.25;;;;;;;8.83;89.76;101015.78;6823416;26;20234;-83
2024/04/19 00:03:07;;;;;;;8.85;1.30;;;;;;;8.84;90.74;101017.47;6823342;26;20019;-83
2024/04/19 00:06:10;;;;;;;4.50;1.42;;;;;;;8.90;91.25;101003.25;6823062;26;20058;-82
2024/04/19 00:09:16;;;;;;;5.57;1.10;;;;;;;8.90;89.51;100995.41;6822854;26;20366;-80
2024/04/19 00:12:19;;;;;;;7.20;1.23;;;;;;;8.92;90.14;100988.34;6822046;26;19998;-81
2024/04/19 00:15:22;;;;;;;8.05;1.08;;;;;;;8.86;89.17;100986.00;6822625;26;20034;-81
2024/04/19 00:18:22;;;;;;;2.78;0.82;;;;;;;8.94;89.42;100969.91;6822441;26;20006;-82
2024/04/19 00:21:25;;;;;;;2.97;0.90;;;;;;;8.94;87.74;100973.38;6822453;26;20397;-81
2024/04/19 00:24:28;;;;;;;7.28;1.10;;;;;;;8.91;89.84;100962.22;6822492;26;19990;-81
2024/04/19 00:27:32;;;;;;;1.95;0.77;;;;;;;8.95;91.06;100953.28;6821161;26;20005;-81
2024/04/19 00:30:36;;;;;;;2.53;0.88;;;;;;;8.94;91.85;100951.56;6822446;26;20005;-81
2024/04/19 00:33:39;;;;;;;2.90;1.00;;;;;;;8.96;92.35;100942.75;6822509;26;20004;-81
2024/04/19 00:36:39;;;;;;;4.47;0.95;;;;;;;8.96;89.82;100936.66;6822287;26;19994;-82
2024/04/19 00:39:45;;;;;;;4.32;1.23;;;;;;;8.89;89.37;100931.66;6822631;26;20034;-82
2024/04/19 00:42:48;;;;;;;5.90;1.30;;;;;;;8.92;89.92;100924.59;6822394;26;19993;-82
2024/04/19 00:45:51;;;;;;;4.20;1.05;;;;;;;8.88;90.09;100923.88;6822652;26;20018;-81
2024/04/19 00:48:54;;;;;;;5.85;1.35;;;;;;;8.94;89.06;100923.59;6822264;26;20058;-83
2024/04/19 00:51:56;;;;;;;2.42;1.05;;;;;;;8.96;88.68;100916.53;6821956;26;19994;-82
2024/04/19 00:55:02;;;;;;;1.83;1.23;;;;;;;8.93;88.92;100914.03;6822398;26;19994;-82
2024/04/19 00:58:03;;;;;;;7.03;1.00;;;;;;;8.88;89.30;100918.63;6821979;26;20066;-84
2024/04/19 01:01:07;;;;;;;4.20;1.05;;;;;;;8.84;90.54;100910.03;6822413;26;19994;-82
2024/04/19 01:04:07;;;;;;;3.10;1.20;;;;;;;8.70;93.19;100891.44;6822224;26;20001;-80
2024/04/19 01:07:10;;;;;;;3.95;0.80;;;;;;;8.63;98.94;100887.41;6821906;26;19994;-81
2024/04/19 01:10:14;;;;;;;4.57;1.02;;;;;;;8.54;94.42;100882.53;6822342;26;20364;-82
2024/04/19 01:13:17;;;;;;;12.18;1.30;;;;;;;8.36;92.65;100878.91;6821873;26;20007;-82
2024/04/19 01:16:18;;;;;;;3.35;0.80;;;;;;;8.29;95.50;100865.22;6821738;26;20001;-81
2024/04/19 01:19:21;;;;;;;3.83;1.00;;;;;;;8.36;98.19;100865.81;6821205;26;19990;-79
2024/04/19 01:22:24;;;;;;;4.07;1.50;;;;;;;8.31;99.74;100859.91;6821048;26;19990;-79
2024/04/19 01:25:35;;;;;;;2.17;1.17;;;;;;;8.29;100.00;100859.13;6821252;26;20065;-80
2024/04/19 01:28:41;;;;;;;5.90;0.95;;;;;;;8.06;100.00;100847.84;6821034;26;19986;-81
2024/04/19 01:31:44;;;;;;;4.20;1.30;;;;;;;8.09;100.00;100846.88;6821184;26;20064;-80
2024/04/19 01:34:47;;;;;;;5.75;1.40;;;;;;;8.08;100.00;100834.69;6821439;26;20005;-82
2024/04/19 01:37:50;;;;;;;3.47;1.02;;;;;;;8.02;100.00;100825.34;6820834;26;19994;-80
2024/04/19 01:40:53;;;;;;;5.95;1.10;;;;;;;8.00;100.00;100819.31;6820314;26;20076;-80
2024/04/19 01:43:56;;;;;;;1.85;0.82;;;;;;;7.89;100.00;100813.66;6820325;26;20067;-81
2024/04/19 01:46:59;;;;;;;2.80;1.35;;;;;;;7.95;100.00;100804.72;6820237;26;19990;-80
2024/04/19 01:49:59;;;;;;;2.22;1.15;;;;;;;7.87;100.00;100799.81;6820533;26;19990;-78
2024/04/19 01:53:02;;;;;;;8.68;1.75;;;;;;;7.78;100.00;100794.97;6820091;26;20043;-79
2024/04/19 01:56:03;;;;;;;5.40;1.42;;;;;;;7.74;100.00;100777.69;6820441;26;20262;-78
2024/04/19 01:59:09;;;;;;;3.13;1.75;;;;;;;7.55;100.00;100773.19;6820312;26;20001;-79
2024/04/19 02:02:09;;;;;;;3.92;2.17;;;;;;;7.45;100.00;100769.25;6821597;26;20004;-78
2024/04/19 02:05:12;;;;;;;2.83;1.50;;;;;;;7.49;100.00;100765.59;6819893;26;20351;-78
2024/04/19 02:08:13;;;;;;;3.40;1.92;;;;;;;7.39;100.00;100753.81;6819767;26;20001;-77
2024/04/19 02:11:16;;;;;;;3.83;2.15;;;;;;;7.39;100.00;100751.19;6819374;26;20021;-78
2024/04/19 02:14:19;;;;;;;4.38;2.28;;;;;;;7.33;100.00;100747.06;6820268;26;19990;-79
2024/04/19 02:17:22;;;;;;;5.30;2.45;;;;;;;7.33;100.00;100738.38;6788029;26;20007;-79
2024/04/19 02:20:22;;;;;;;9.52;2.28;;;;;;;7.28;100.00;100727.25;6774575;26;20044;-78
2024/04/19 02:23:42;;;;;;;5.10;2.60;;;;;;;7.20;100.00;100713.63;6774418;26;20030;-79
2024/04/19 02:26:51;;;;;;;6.00;2.72;;;;;;;7.17;100.00;100711.97;6773939;26;20018;-78
2024/04/19 02:33:16;;;;;;;8.07;2.70;;;;;;;7.11;100.00;100697.41;6819452;26;20006;-79
2024/04/19 02:36:19;;;;;;;6.45;3.03;;;;;;;6.99;100.00;100690.03;6818870;26;19990;-78
2024/04/19 02:39:22;;;;;;;5.00;2.92;;;;;;;6.92;100.00;100682.53;6819221;26;20005;-78
2024/04/19 02:42:25;;;;;;;6.95;3.50;;;;;;;6.80;100.00;100676.00;6818934;26;19990;-78
2024/04/19 02:45:30;;;;;;;14.25;3.22;;;;;;;6.77;100.00;100663.94;6818907;26;20616;-78
2024/04/19 02:48:34;;;;;;;9.07;3.00;;;;;;;6.69;100.00;100646.84;6819698;26;20367;-79
2024/04/19 02:51:37;;;;;;;7.90;3.42;;;;;;;6.74;100.00;100655.38;6820030;26;20009;-77
2024/04/19 02:54:40;;;;;;;4.25;2.75;;;;;;;6.70;100.00;100643.34;6823804;26;19990;-78
2024/04/19 02:57:43;;;;;;;9.70;3.05;;;;;;;6.72;100.00;100625.81;6823254;26;20006;-78
2024/04/19 03:00:48;;;;;;;6.15;3.35;;;;;;;6.70;100.00;100627.66;6823873;26;20006;-79
2024/04/19 03:03:51;;;;;;;6.32;3.13;;;;;;;6.50;100.00;100603.19;6823221;26;20250;-78
2024/04/19 03:06:54;;;;;;;4.20;2.67;;;;;;;6.63;100.00;100595.69;6823174;26;19986;-79
2024/04/19 03:09:57;;;;;;;7.03;2.97;;;;;;;6.62;100.00;100591.41;6823558;26;20029;-78
2024/04/19 03:13:00;;;;;;;4.90;2.28;;;;;;;6.58;100.00;100592.44;6823008;26;19994;-77
2024/04/19 03:16:10;;;;;;;4.15;2.90;;;;;;;6.58;100.00;100574.16;6823142;26;19994;-78
2024/04/19 03:19:13;;;;;;;3.80;2.70;;;;;;;6.61;100.00;100567.06;6823209;26;19994;-78
2024/04/19 03:22:18;;;;;;;4.75;2.60;;;;;;;6.44;100.00;100571.25;6822801;26;19994;-78
2024/04/19 03:25:21;;;;;;;8.70;2.13;;;;;;;6.34;100.00;100560.31;6822909;26;20247;-78
2024/04/19 03:28:24;;;;;;;4.75;2.45;;;;;;;6.38;100.00;100550.59;6822647;26;20286;-78
2024/04/19 03:31:29;;;;;;;2.92;2.15;;;;;;;6.23;100.00;100547.69;6822516;26;20005;-78
2024/04/19 03:34:32;;;;;;;2.70;1.90;;;;;;;6.28;100.00;100535.31;6823295;26;19987;-78
2024/04/19 03:37:35;;;;;;;3.45;2.28;;;;;;;6.33;100.00;100525.53;6822748;26;20005;-78
2024/04/19 03:40:38;;;;;;;7.97;2.88;;;;;;;6.32;100.00;100502.97;6822503;26;20000;-79
2024/04/19 03:45:40;;;;;;;4.68;2.75;;;;;;;6.35;100.00;100499.38;6822244;26;20365;-79
2024/04/19 03:47:06;;;;;;;5.13;3.08;;;;;;;6.38;100.00;100495.81;6822041;26;19994;-78
2024/04/19 03:50:09;;;;;;;4.85;3.25;;;;;;;6.48;100.00;100474.47;6822130;26;20005;-78
2024/04/19 03:53:12;;;;;;;5.28;3.28;;;;;;;6.57;100.00;100475.88;6822279;26;19994;-78
2024/04/19 03:56:15;;;;;;;5.32;3.90;;;;;;;6.43;100.00;100457.31;6843317;21;19990;-76
2024/04/19 03:59:18;;;;;;;6.57;3.47;;;;;;;6.41;100.00;100441.72;6822059;26;20259;-76
2024/04/19 04:02:23;;;;;;;5.15;3.40;;;;;;;6.46;100.00;100439.78;6791608;26;20001;-76
2024/04/19 04:05:26;;;;;;;5.75;3.30;;;;;;;6.47;100.00;100433.63;6776873;26;20019;-76
2024/04/19 04:08:29;;;;;;;7.20;4.13;;;;;;;6.52;100.00;100430.81;6776906;26;20006;-76
2024/04/19 04:11:32;;;;;;;7.47;4.55;;;;;;;6.51;100.00;100419.53;6776561;26;20266;-76
2024/04/19 04:14:36;;;;;;;7.47;4.32;;;;;;;6.55;100.00;100407.22;6777235;26;20009;-76
2024/04/19 04:17:41;;;;;;;7.78;4.53;;;;;;;6.55;100.00;100400.22;6776290;26;19991;-76
2024/04/19 04:20:44;;;;;;;7.22;3.92;;;;;;;6.54;100.00;100385.50;6776623;26;19995;-76
2024/04/19 04:23:47;;;;;;;6.72;4.32;;;;;;;6.57;100.00;100390.56;6776282;26;20002;-76
2024/04/19 04:26:50;;;;;;;8.55;4.43;;;;;;;6.66;100.00;100372.81;6776357;26;20411;-76
2024/04/19 04:29:53;;;;;;;8.57;4.95;;;;;;;6.60;100.00;100376.53;6776118;26;19991;-76
2024/04/19 04:32:59;;;;;;;6.90;4.88;;;;;;;6.54;100.00;100367.22;6776031;26;19997;-77
2024/04/19 04:36:02;;;;;;;8.23;5.00;;;;;;;6.52;100.00;100358.59;6776168;26;20036;-76
2024/04/19 04:39:05;;;;;;;10.23;5.53;;;;;;;6.56;100.00;100352.31;6776387;26;19995;-76
2024/04/19 04:42:08;;;;;;;6.97;5.00;;;;;;;6.60;100.00;100340.84;6776235;26;20043;-76
2024/04/19 04:45:12;;;;;;;9.35;5.28;;;;;;;6.57;100.00;100333.13;6776256;26;20032;-77
2024/04/19 04:48:18;;;;;;;9.68;5.22;;;;;;;6.64;100.00;100325.88;6776058;26;20263;-76
2024/04/19 04:51:21;;;;;;;8.52;5.45;;;;;;;6.65;100.00;100324.97;6776259;26;19991;-76
2024/04/19 04:54:24;;;;;;;8.43;5.60;;;;;;;6.66;100.00;100320.59;6776062;26;19990;-76
2024/04/19 04:57:27;;;;;;;11.00;5.50;;;;;;;6.60;100.00;100316.50;6775722;26;19995;-76
2024/04/19 05:00:30;;;;;;;9.98;6.22;;;;;;;6.61;100.00;100305.97;6775719;26;20423;-76
2024/04/19 05:03:36;;;;;;;7.35;4.78;;;;;;;6.61;100.00;100310.34;6775509;26;19991;-76
2024/04/19 05:06:39;;;;;;;9.50;4.90;;;;;;;6.60;100.00;100296.44;6775541;26;20154;-76
2024/04/19 05:09:42;;;;;;;11.45;4.75;;;;;;;6.60;100.00;100290.38;6775357;26;20059;-76
2024/04/19 05:12:45;;;;;;;9.05;5.32;;;;;;;6.60;100.00;100283.41;6775567;26;19995;-77
2024/04/19 05:15:49;;;;;;;6.35;4.18;;;;;;;6.68;100.00;100279.59;6775109;26;20003;-76
2024/04/19 05:18:55;;;;;;;10.65;4.88;;;;;;;6.66;100.00;100268.38;6775927;26;20601;-76
2024/04/19 05:21:58;;;;;;;7.45;4.70;;;;;;;6.69;100.00;100257.78;6775265;26;19995;-77
2024/04/19 05:25:01;;;;;;;6.28;4.28;;;;;;;6.72;100.00;100241.97;6775765;26;19995;-76
2024/04/19 05:28:04;;;;;;;5.80;4.00;;;;;;;6.74;100.00;100237.53;6775003;26;19990;-77
2024/04/19 05:31:07;;;;;;;7.72;4.63;;;;;;;6.77;100.00;100234.81;6775142;26;20359;-76
2024/04/19 05:34:13;;;;;;;5.63;3.55;;;;;;;6.66;100.00;100232.66;6775152;26;19991;-76
2024/04/19 05:37:16;;;;;;;6.35;3.95;;;;;;;6.71;100.00;100230.69;6775034;26;20056;-76
2024/04/19 05:40:19;;;;;;;6.03;3.90;;;;;;;6.74;100.00;100230.56;6775040;26;19990;-76
2024/04/19 05:43:22;;;;;;;6.25;3.60;;;;;;;6.64;100.00;100239.72;6775242;26;19995;-75
2024/04/19 05:46:25;;;;;;;4.22;3.35;;;;;;;6.74;100.00;100221.88;6774584;26;20031;-76
2024/04/19 05:49:31;;;;;;;9.95;3.58;;;;;;;6.73;100.00;100223.63;6774892;26;20009;-76
2024/04/19 05:52:34;;;;;;;8.00;3.83;;;;;;;6.76;100.00;100214.81;6774748;26;19995;-76
2024/04/19 05:55:37;;;;;;;5.78;3.40;;;;;;;6.77;100.00;100200.84;6774918;26;20002;-75
2024/04/19 05:58:40;;;;;;;4.53;3.13;;;;;;;6.83;100.00;100193.56;6774871;26;20007;-76
2024/04/19 06:01:44;;;;;;;5.70;3.70;;;;;;;6.85;100.00;100188.25;6774350;26;19991;-75
2024/04/19 06:04:50;;;;;;;5.57;3.47;;;;;;;6.91;100.00;100184.53;6774750;26;19997;-76
2024/04/19 06:07:53;;;;;;;4.78;3.28;;;;;;;6.93;100.00;100183.53;6773948;26;20005;-76
2024/04/19 06:10:56;;;;;;;5.93;3.63;;;;;;;6.96;100.00;100179.94;6773843;26;19999;-76
2024/04/19 06:13:59;;;;;;;5.28;3.50;;;;;;;6.98;100.00;100188.53;6774359;26;20001;-76
2024/04/19 06:17:02;;;;;;;7.03;3.80;;;;;;;7.02;100.00;100185.69;6774183;26;19994;-76
2024/04/19 06:20:08;;;;;;;5.60;3.67;;;;;;;7.09;100.00;100173.22;6774292;26;20034;-75
2024/04/19 06:23:11;;;;;;;5.45;3.75;;;;;;;7.17;100.00;100167.59;6774148;26;20256;-76
2024/04/19 06:26:14;;;;;;;4.97;3.38;;;;;;;7.12;100.00;100166.03;6772537;26;20009;-75
2024/04/19 06:29:17;;;;;;;7.57;3.83;;;;;;;7.17;100.00;100186.72;6774429;26;19995;-76
2024/04/19 06:32:20;;;;;;;4.57;3.20;;;;;;;7.19;100.00;100169.22;6773968;26;20005;-76
2024/04/19 06:35:26;;;;;;;5.70;3.55;;;;;;;7.18;100.00;100172.75;6774265;26;19991;-77
2024/04/19 06:38:29;;;;;;;4.97;3.45;;;;;;;7.25;100.00;100179.38;6774083;26;20051;-76
2024/04/19 06:41:32;;;;;;;5.40;3.67;;;;;;;7.31;100.00;100162.53;6773762;26;19995;-75
2024/04/19 06:44:36;;;;;;;4.85;3.30;;;;;;;7.32;100.00;100153.78;6773888;26;20256;-75
2024/04/19 06:47:39;;;;;;;5.13;3.47;;;;;;;7.37;100.00;100168.31;6773341;26;19995;-75
2024/04/19 06:50:45;;;;;;;4.85;3.33;;;;;;;7.34;100.00;100165.00;6773259;26;20009;-75
2024/04/19 06:53:48;;;;;;;9.00;3.13;;;;;;;7.38;100.00;100167.38;6773797;26;19991;-75
2024/04/19 06:56:51;;;;;;;4.97;3.28;;;;;;;7.40;100.00;100169.91;6773745;26;19995;-75
2024/04/19 06:59:54;;;;;;;3.65;2.80;;;;;;;7.48;100.00;100164.31;6773434;26;19990;-74
2024/04/19 07:02:57;;;;;;;3.25;2.40;;;;;;;7.42;100.00;100149.78;6773170;26;20005;-75
2024/04/19 07:06:09;;;;;;;3.90;2.88;;;;;;;7.43;100.00;100150.63;6773237;26;20378;-76
2024/04/19 07:09:13;;;;;;;4.40;2.88;;;;;;;7.52;100.00;100137.09;6773549;26;19990;-75
2024/04/19 07:12:16;;;;;;;4.78;2.50;;;;;;;7.51;100.00;100132.81;6773035;26;20006;-75
2024/04/19 07:15:19;;;;;;;8.57;3.50;;;;;;;7.53;100.00;100134.41;6773243;26;20055;-76
2024/04/19 07:18:24;;;;;;;4.85;2.63;;;;;;;7.62;100.00;100128.69;6772978;26;19991;-74
2024/04/19 07:21:29;;;;;;;5.70;2.78;;;;;;;7.71;100.00;100132.63;6773364;26;19991;-75
2024/04/19 07:24:32;;;;;;;3.25;2.33;;;;;;;7.79;100.00;100138.31;6773094;26;20001;-75
2024/04/19 07:27:35;;;;;;;4.97;2.70;;;;;;;7.75;100.00;100123.69;6773079;26;20088;-75
2024/04/19 07:30:38;;;;;;;3.88;2.65;;;;;;;7.80;100.00;100118.22;6772661;26;20001;-76
2024/04/19 07:33:41;;;;;;;5.50;3.17;;;;;;;7.85;100.00;100124.91;6772533;26;19995;-74
2024/04/19 07:36:47;;;;;;;4.43;2.70;;;;;;;7.87;100.00;100111.75;6773372;26;20243;-75
2024/04/19 07:39:50;;;;;;;5.65;2.53;;;;;;;7.98;100.00;100113.81;6777248;26;20005;-75
2024/04/19 07:42:53;;;;;;;2.90;2.22;;;;;;;8.07;100.00;100113.31;6777436;26;20003;-75
2024/04/19 07:45:56;;;;;;;3.60;2.42;;;;;;;8.14;100.00;100114.69;6777042;26;20055;-74
2024/04/19 07:48:59;;;;;;;4.35;2.83;;;;;;;8.17;100.00;100106.66;6777329;26;20051;-77
2024/04/19 07:52:04;;;;;;;3.17;2.05;;;;;;;8.24;100.00;100109.81;6776958;26;20063;-76
2024/04/19 07:55:08;;;;;;;2.90;2.05;;;;;;;8.32;100.00;100110.25;6777348;26;19995;-74
2024/04/19 07:58:11;;;;;;;4.38;2.20;;;;;;;8.32;100.00;100105.00;6776686;26;20002;-75
2024/04/19 08:01:14;;;;;;;3.05;2.08;;;;;;;8.36;100.00;100104.78;6776751;26;19999;-77
2024/04/19 08:04:17;;;;;;;3.20;2.13;;;;;;;8.46;100.00;100094.66;6777006;26;20259;-75
2024/04/19 08:07:26;;;;;;;3.90;2.20;;;;;;;8.54;100.00;100102.06;6776738;26;20005;-74
2024/04/19 08:10:29;;;;;;;3.55;2.53;;;;;;;8.66;100.00;100104.00;6776781;26;20077;-74
2024/04/19 08:13:32;;;;;;;3.67;2.55;;;;;;;8.91;100.00;100102.66;6776644;26;20402;-75
2024/04/19 08:16:35;;;;;;;6.03;2.30;;;;;;;9.00;100.00;100102.97;6776422;26;19999;-77
2024/04/19 08:19:38;;;;;;;3.38;2.20;;;;;;;8.92;100.00;100107.78;6776686;26;20003;-75
2024/04/19 08:22:43;;;;;;;4.05;2.30;;;;;;;8.99;100.00;100109.13;6776503;26;20032;-76
2024/04/19 08:25:47;;;;;;;4.03;2.30;;;;;;;9.03;100.00;100100.16;6776676;26;20009;-77
2024/04/19 08:28:50;;;;;;;3.75;2.85;;;;;;;9.06;100.00;100099.16;6776452;26;19989;-74
2024/04/19 08:31:53;;;;;;;5.38;2.53;;;;;;;9.09;100.00;100096.38;6776433;26;19999;-76
2024/04/19 08:34:56;;;;;;;5.40;2.47;;;;;;;9.16;100.00;100089.81;6776513;26;20047;-76
2024/04/19 08:38:01;;;;;;;3.58;2.25;;;;;;;9.11;100.00;100084.84;6776144;26;19995;-77
2024/04/19 08:41:06;;;;;;;4.03;2.63;;;;;;;9.06;100.00;100086.88;6776475;26;19994;-77
2024/04/19 08:44:10;;;;;;;9.43;2.85;;;;;;;8.99;100.00;100080.28;6776201;26;20482;-77
2024/04/19 08:47:16;;;;;;;7.00;3.15;;;;;;;9.09;100.00;100083.25;6776028;26;19995;-77
2024/04/19 08:50:20;;;;;;;5.72;2.33;;;;;;;9.14;100.00;100082.03;6774935;26;20001;-77
2024/04/19 08:53:26;;;;;;;3.33;2.40;;;;;;;9.21;100.00;100076.44;6775860;26;19998;-77
2024/04/19 08:56:30;;;;;;;6.00;2.47;;;;;;;9.23;100.00;100075.44;6776064;26;19995;-77
2024/04/19 08:59:34;;;;;;;4.43;2.45;;;;;;;9.18;100.00;100069.63;6776126;26;19995;-76
2024/04/19 09:02:37;;;;;;;5.07;2.45;;;;;;;9.13;100.00;100076.91;6775837;26;19995;-77
2024/04/19 09:05:40;;;;;;;3.25;2.25;;;;;;;9.05;100.00;100068.63;6775879;26;19991;-77
2024/04/19 09:08:47;;;;;;;7.53;1.88;;;;;;;8.97;100.00;100070.84;6775836;26;19991;-76
2024/04/19 09:11:54;;;;;;;4.65;1.35;;;;;;;8.82;100.00;100072.56;6775580;26;20310;-76
2024/04/19 09:14:57;;;;;;;1.15;1.00;;;;;;;8.57;100.00;100073.94;6776212;26;19995;-76
2024/04/19 09:18:00;;;;;;;9.38;1.00;;;;;;;8.50;100.00;100069.16;6775852;26;19994;-75
2024/04/19 09:21:03;;;;;;;2.75;1.15;;;;;;;8.55;100.00;100070.56;6775903;26;20001;-76
2024/04/19 09:24:09;;;;;;;4.90;1.70;;;;;;;8.59;100.00;100069.47;6775482;26;19995;-75
2024/04/19 09:27:13;;;;;;;8.70;2.35;;;;;;;8.76;100.00;100060.66;6775398;26;19990;-75
2024/04/19 09:30:16;;;;;;;5.60;1.02;;;;;;;8.97;100.00;100060.38;6775427;26;20357;-76
2024/04/19 09:33:19;;;;;;;4.32;1.20;;;;;;;9.09;100.00;100052.66;6775080;26;20001;-76
2024/04/19 09:36:22;;;;;;;2.42;1.08;;;;;;;9.15;100.00;100046.19;6775204;26;19995;-76
2024/04/19 09:39:29;;;;;;;10.30;1.48;;;;;;;9.35;100.00;100043.22;6775362;26;20035;-77
2024/04/19 09:42:33;;;;;;;6.65;1.02;;;;;;;9.50;100.00;100032.78;6775231;26;20051;-76
2024/04/19 09:45:44;;;;;;;4.15;1.38;;;;;;;9.66;100.00;100031.72;6775215;26;20063;-76
2024/04/19 09:48:49;;;;;;;7.35;0.68;;;;;;;9.70;100.00;100028.94;6775078;26;20002;-75
2024/04/19 09:51:53;;;;;;;4.32;1.38;;;;;;;9.87;100.00;100020.88;6774916;26;20260;-76
2024/04/19 09:55:04;;;;;;;4.47;0.98;;;;;;;10.01;100.00;100020.00;6774941;26;20370;-77
2024/04/19 09:58:08;;;;;;;4.55;0.63;;;;;;;10.08;100.00;100021.28;6795974;21;20003;-74
2024/04/19 10:01:13;;;;;;;2.08;0.80;;;;;;;10.24;100.00;100019.41;6774616;26;19994;-75
2024/04/19 10:04:16;;;;;;;9.57;0.90;;;;;;;10.53;100.00;100014.91;6775241;26;19995;-76
2024/04/19 10:07:20;;;;;;;3.47;0.68;;;;;;;10.65;100.00;100014.13;6739821;26;19996;-76
2024/04/19 10:10:26;;;;;;;8.90;0.80;;;;;;;10.64;100.00;100011.59;6730326;26;20052;-75
2024/04/19 10:13:30;;;;;;;3.38;1.05;;;;;;;10.68;100.00;100007.84;6729778;26;20417;-77
2024/04/19 10:16:33;;;;;;;4.10;0.80;;;;;;;10.66;100.00;100001.81;6730022;26;20311;-77
2024/04/19 10:19:37;;;;;;;6.57;1.40;;;;;;;10.56;100.00;99995.50;6730197;26;20322;-78
2024/04/19 10:22:42;;;;;;;2.58;0.80;;;;;;;10.32;100.00;99995.31;6730056;26;20015;-76
2024/04/19 10:25:49;;;;;;;3.42;0.50;;;;;;;10.26;100.00;99988.66;6729769;26;20052;-76
2024/04/19 10:28:57;;;;;;;3.17;0.82;;;;;;;10.35;100.00;99995.09;6730019;26;20064;-77
2024/04/19 10:32:00;;;;;;;4.53;1.25;;;;;;;10.36;100.00;99986.28;6729351;26;19991;-77
2024/04/19 10:35:03;;;;;;;3.58;1.00;;;;;;;10.42;100.00;99980.63;6729801;26;20428;-77
2024/04/19 10:38:06;;;;;;;3.25;0.88;;;;;;;10.57;100.00;99973.53;6729439;26;20045;-76
2024/04/19 10:41:20;;;;;;;3.78;1.08;;;;;;;10.70;100.00;99970.94;6729355;26;19995;-77
2024/04/19 10:44:24;;;;;;;2.85;0.60;;;;;;;10.91;100.00;99954.59;6729656;26;20002;-78
2024/04/19 10:47:27;;;;;;;3.03;1.00;;;;;;;11.04;100.00;99967.75;6729147;26;19995;-78
2024/04/19 10:50:31;;;;;;;7.30;1.15;;;;;;;11.02;100.00;99951.22;6729170;26;20037;-77
2024/04/19 10:53:34;;;;;;;6.32;0.85;;;;;;;11.13;100.00;99959.22;6729229;26;19992;-79
2024/04/19 10:56:40;;;;;;;3.33;1.13;;;;;;;11.32;100.00;99950.91;6729219;26;20000;-78
2024/04/19 10:59:43;;;;;;;4.22;1.00;;;;;;;11.37;100.00;99951.44;6729469;26;20006;-77
2024/04/19 11:02:46;;;;;;;3.22;1.10;;;;;;;11.62;100.00;99939.19;6729371;26;19992;-78
2024/04/19 11:05:49;;;;;;;2.15;0.85;;;;;;;11.82;100.00;99935.16;6729126;26;20262;-80
2024/04/19 11:08:52;;;;;;;8.88;1.17;;;;;;;11.99;100.00;99933.94;6728954;26;20035;-79
2024/04/19 11:11:59;;;;;;;5.47;1.75;;;;;;;11.87;100.00;99933.91;6729981;26;19997;-81
2024/04/19 11:15:03;;;;;;;1.58;0.75;;;;;;;11.63;100.00;99933.81;6733790;26;20004;-77
2024/04/19 11:18:09;;;;;;;2.78;0.70;;;;;;;11.48;100.00;99932.25;6733880;26;19995;-77
2024/04/19 11:21:12;;;;;;;2.75;1.10;;;;;;;11.34;100.00;99940.28;6733799;26;19999;-78
2024/04/19 11:24:18;;;;;;;2.22;0.80;;;;;;;11.21;100.00;99945.53;6733525;26;20407;-78
2024/04/19 11:27:24;;;;;;;4.38;0.93;;;;;;;10.75;100.00;99956.53;6733759;26;19999;-78
2024/04/19 11:30:29;;;;;;;8.55;1.10;;;;;;;10.45;100.00;99940.19;6733697;26;20389;-78
2024/04/19 11:33:32;;;;;;;8.45;0.98;;;;;;;10.31;100.00;99954.22;6733088;26;20072;-78
2024/04/19 11:36:36;;;;;;;3.13;0.98;;;;;;;10.31;100.00;99952.44;6733363;26;19992;-77
2024/04/19 11:39:39;;;;;;;1.38;0.82;;;;;;;10.33;100.00;99947.09;6733582;26;19995;-79
2024/04/19 11:42:44;;;;;;;4.22;1.00;;;;;;;10.38;100.00;99945.84;6733006;26;20056;-79
2024/04/19 11:45:48;;;;;;;7.97;0.90;;;;;;;10.28;100.00;99949.16;6733247;26;20072;-79
2024/04/19 11:48:51;;;;;;;5.40;0.68;;;;;;;10.29;100.00;99928.06;6733634;26;20006;-77
2024/04/19 11:51:55;;;;;;;5.18;0.90;;;;;;;10.36;100.00;99937.22;6732765;26;20006;-79
2024/04/19 11:54:58;;;;;;;3.10;0.70;;;;;;;10.48;100.00;99930.31;6733225;26;20601;-78
2024/04/19 11:58:03;;;;;;;3.70;1.08;;;;;;;10.64;100.00;99925.75;6733296;26;19999;-78
2024/04/19 12:01:06;;;;;;;3.90;0.77;;;;;;;10.64;100.00;99931.00;6733352;26;20056;-80
2024/04/19 12:04:10;;;;;;;5.57;0.93;;;;;;;10.84;100.00;99926.19;6733197;26;20026;-80
2024/04/19 12:07:13;;;;;;;3.72;0.63;;;;;;;11.23;100.00;99925.25;6733184;26;20256;-76
2024/04/19 12:10:16;;;;;;;3.50;0.70;;;;;;;11.56;100.00;99926.47;6732780;26;19991;-79
2024/04/19 12:13:22;;;;;;;0.75;0.55;;;;;;;11.58;100.00;99916.66;6732110;26;19991;-79
2024/04/19 12:16:25;;;;;;;1.70;0.60;;;;;;;11.67;100.00;99916.88;6732139;26;20322;-79
2024/04/19 12:19:28;;;;;;;3.22;0.95;;;;;;;11.67;100.00;99914.25;6732787;26;19992;-79
2024/04/19 12:22:31;;;;;;;3.70;1.00;;;;;;;11.89;100.00;99921.44;6732398;26;19995;-80
2024/04/19 12:25:34;;;;;;;4.15;1.10;;;;;;;12.03;100.00;99909.91;6730984;26;19999;-79
2024/04/19 12:28:40;;;;;;;1.63;0.68;;;;;;;11.96;100.00;99913.13;6732406;26;20360;-83
2024/04/19 12:31:43;;;;;;;3.45;0.57;;;;;;;11.83;100.00;99916.63;6732338;26;20065;-82
2024/04/19 12:34:46;;;;;;;4.40;0.85;;;;;;;11.64;100.00;99905.72;6733145;26;20006;-81
2024/04/19 12:37:49;;;;;;;2.95;0.70;;;;;;;11.51;100.00;99902.28;6732113;26;19995;-81
2024/04/19 12:40:53;;;;;;;1.67;0.68;;;;;;;11.54;100.00;99897.63;6732349;26;20052;-82
2024/04/19 12:43:59;;;;;;;2.35;1.35;;;;;;;11.51;100.00;99903.09;6732188;26;20015;-83
2024/04/19 12:47:02;;;;;;;5.28;0.75;;;;;;;11.74;100.00;99901.47;6732176;26;19987;-80
2024/04/19 12:50:06;;;;;;;5.75;1.27;;;;;;;11.93;99.25;99893.94;6732643;26;20007;-81
2024/04/19 12:53:10;;;;;;;3.13;0.73;;;;;;;12.04;98.92;99898.47;6732606;26;20001;-79
2024/04/19 12:56:13;;;;;;;2.63;1.02;;;;;;;12.67;96.00;99894.63;6732229;26;19999;-84
2024/04/19 12:59:20;;;;;;;2.42;0.70;;;;;;;12.67;91.70;99893.75;6733293;26;20345;-83
2024/04/19 13:02:24;;;;;;;4.35;1.17;;;;;;;12.72;93.30;99896.03;6731823;26;20247;-83
2024/04/19 13:05:29;;;;;;;4.22;1.10;;;;;;;12.05;100.00;99907.19;6732203;26;19988;-78
2024/04/19 13:08:32;;;;;;;5.25;1.08;;;;;;;11.20;100.00;99932.50;6731815;26;19996;-76
2024/04/19 13:11:35;;;;;;;4.97;0.60;;;;;;;10.51;100.00;99927.50;6731322;26;20052;-78
2024/04/19 13:14:41;;;;;;;4.28;0.32;;;;;;;9.78;100.00;99930.44;6731450;26;20003;-78
2024/04/19 13:17:44;;;;;;;4.55;0.40;;;;;;;9.51;100.00;99912.03;6731197;26;20035;-78
2024/04/19 13:20:46;;;;;;;3.20;0.70;;;;;;;9.48;100.00;99917.44;6731194;26;19991;-78
2024/04/19 13:23:49;;;;;;;2.33;0.65;;;;;;;9.47;100.00;99914.94;6730955;26;20488;-77
2024/04/19 13:26:52;;;;;;;1.42;0.45;;;;;;;9.66;100.00;99920.69;6731084;26;20033;-78
2024/04/19 13:29:58;;;;;;;1.17;0.50;;;;;;;9.66;100.00;99926.78;6731004;26;20025;-77
2024/04/19 13:33:01;;;;;;;1.25;0.50;;;;;;;10.09;100.00;99915.38;6730971;26;19991;-76
2024/04/19 13:36:04;;;;;;;2.25;0.70;;;;;;;10.55;100.00;99923.72;6730433;26;20000;-77
2024/04/19 13:39:08;;;;;;;0.40;0.40;;;;;;;10.89;100.00;99916.19;6731085;26;20029;-78
2024/04/19 13:42:11;;;;;;;1.40;0.40;;;;;;;11.05;100.00;99916.84;6730465;26;20010;-77
2024/04/19 13:45:16;;;;;;;5.65;1.02;;;;;;;11.23;100.00;99906.00;6730996;26;20064;-77
2024/04/19 13:48:22;;;;;;;1.88;0.68;;;;;;;11.38;100.00;99903.13;6730561;26;20007;-78
2024/04/19 13:51:25;;;;;;;5.03;0.95;;;;;;;11.42;100.00;99906.38;6730540;26;20039;-77
2024/04/19 13:54:28;;;;;;;3.13;0.93;;;;;;;11.48;100.00;99907.75;6730597;26;19996;-79
2024/04/19 13:57:31;;;;;;;4.18;1.00;;;;;;;11.72;100.00;99908.66;6730965;26;20000;-79
2024/04/19 14:00:37;;;;;;;6.28;1.00;;;;;;;12.04;100.00;99901.09;6730624;26;20263;-79
2024/04/19 14:03:40;;;;;;;7.25;2.55;;;;;;;12.40;100.00;99887.00;6730703;26;19992;-79
2024/04/19 14:06:44;;;;;;;3.08;1.52;;;;;;;12.73;100.00;99898.59;6730326;26;20002;-86
2024/04/19 14:09:47;;;;;;;4.85;1.45;;;;;;;12.31;100.00;99900.84;6730308;26;20006;-81
2024/04/19 14:12:52;;;;;;;4.00;1.17;;;;;;;12.27;100.00;99880.13;6730320;26;20003;-82
2024/04/19 14:15:59;;;;;;;4.38;1.13;;;;;;;12.01;100.00;99887.28;6730183;26;19995;-83
2024/04/19 14:19:02;;;;;;;6.18;2.08;;;;;;;11.86;100.00;99891.91;6730385;26;20018;-81